クアラルンプール の空港の天気 - METARとTAF

クアラルンプール国際空港 ( WMKK / KUL ) - マレーシア スランゴール州セパン
飛行場実況気象(Metar)
観測時間08/16 14:30 MYT (08/16 06:30 UTC)
風向・風速南南西 4m/s
視程10km以上
天気現象
全天の4割程度の雲 雲底高度 550m
全天の4割程度の雲 雲底高度 4270m
全天の8割程度の雲 雲底高度 8530m
気温34℃
湿度56%
気圧1007hPa
METARWMKK 160630Z 20007KT 140V280 9999 SCT018 SCT140 BKN280 34/24 Q1007 NOSIG
過去の天気等 Google飛行場航空写真 Wunderground天気予報

過去48時間のMETAR

飛行場予報(TAF)
発表時間: 8/16 13:00 MYT (8/16 05:00 UTC)
予報対象時間: 16日14時 MYT ~ 17日20時 MYT
風向・風速南 5m/s
視程9000m
少しの積乱雲 雲底高度 520m
16日22時 MYT ~ 16日23時 MYT に徐々に
風向・風速不定 1m/s
視程7000m
少しの雲 雲底高度 910m
17日8時 MYT ~ 17日10時 MYT に徐々に
風向・風速南南東 4m/s
視程9000m
少しの雲 雲底高度 550m
TAF WMKK 160500Z 1606/1712 17010KT 9000 FEW017CB
BECMG 1614/1615 VRB02KT 7000 FEW030
BECMG 1700/1702 15008KT 9000 FEW018